• Join FlightAware (Why Join?)
  • Login
  • US Flag 
07:07PM EST


 

Airport Tracker/Info


-or-


 

Live Flight TrackerFlight Track Log ✈ UAL4108 ✈ 15-Apr-2013 ✈ KLIT - KIAH

Flight Track Log - Related Links

Times and Time Zones

All times are in EDT time to prevent confusion due to time zone crossing. See the UAL4108 flight status page for this flight to view local times or setup timezone preferences in your user account.

Time Position Orientation Groundspeed Altitude Reporting Facility
EDT Latitude Longitude Course Direction KTS MPH feet Rate Location/Type
09:18PM 34.7197 -92.2444 193° South 168 193 600  Level Memphis Center
09:20PM 34.6444 -92.2556 187° South 228 262 4,400 2,820 Climbing Memphis Center
09:20PM 34.6069 -92.2522 176° South 244 281 6,000 3,060 Climbing Memphis Center
09:21PM 34.4981 -92.3859 190° South  Level Estimated
09:21PM 34.5425 -92.2508 179° South 254 292 9,000  Level Memphis Center
09:22PM 34.4117 -92.3608 167° South  Level FlightAware Approximate
09:22PM 34.4650 -92.2667 190° South 260 299 11,000  Level Memphis Center
09:23PM 34.3351 -92.4154 193° South  Level Estimated
09:23PM 34.3686 -92.2822 188° South 311 358 12,200  Level Memphis Center
09:24PM 34.2619 -92.2997 188° South 359 413 13,700 1,500 Climbing Memphis Center
09:25PM 34.1531 -92.3200 189° South 386 444 15,300 1,620 Climbing Memphis Center
09:26PM 34.0422 -92.3400 189° South 404 465 17,000 1,740 Climbing Memphis Center
09:27PM 33.9333 -92.3575 188° South 404 465 18,800 1,740 Climbing Memphis Center
09:28PM 33.8247 -92.3775 189° South 404 465 20,500 1,200 Climbing Memphis Center
09:30PM 33.6561 -92.4028 187° South 406 467 22,000 540 Climbing Fort Worth Center
09:31PM 33.5336 -92.4222 188° South 420 483 22,000  Level Fort Worth Center
09:32PM 33.4217 -92.4411 188° South 426 490 22,000  Level Fort Worth Center
09:33PM 33.3036 -92.4603 188° South 426 490 22,000  Level Fort Worth Center
09:34PM 33.1833 -92.4792 187° South 426 490 22,000  Level Fort Worth Center
09:36PM 32.9572 -92.5172 188° South 424 488 22,000  Level Houston Center
09:37PM 32.8408 -92.5356 188° South 421 484 22,000  Level Houston Center
09:38PM 32.7025 -92.5583 188° South 420 483 22,000  Level Houston Center
09:39PM 32.5872 -92.5769 188° South 418 481 22,000  Level Houston Center
09:40PM 32.4733 -92.5972 189° South 417 480 22,000  Level Houston Center
09:41PM 32.3578 -92.6144 187° South 416 479 22,000  Level Houston Center
09:42PM 32.2444 -92.6322 188° South 415 478 22,000  Level Houston Center
09:43PM 32.1297 -92.6514 188° South 415 478 22,000  Level Houston Center
09:44PM 32.0156 -92.6697 188° South 415 478 22,000  Level Houston Center
09:45PM 31.9175 -92.7317 208° Southwest 406 467 22,000  Level Houston Center
09:46PM 31.8308 -92.8156 219° Southwest 405 466 22,000  Level Houston Center
09:47PM 31.7258 -92.9172 219° Southwest 409 471 22,000  Level Houston Center
09:48PM 31.6394 -93.0014 220° Southwest 408 470 22,000  Level Houston Center
09:49PM 31.5506 -93.0869 219° Southwest 414 476 22,000  Level Houston Center
09:50PM 31.4628 -93.1703 219° Southwest 412 474 22,000  Level Houston Center
09:51PM 31.3742 -93.2553 219° Southwest 413 475 22,000  Level Houston Center
09:52PM 31.2861 -93.3383 219° Southwest 411 473 22,000  Level Houston Center
09:53PM 31.1978 -93.4228 219° Southwest 411 473 22,000  Level Houston Center
09:54PM 31.1111 -93.5056 219° Southwest 408 470 22,000  Level Houston Center
09:55PM 31.0153 -93.5950 219° Southwest 402 463 22,000  Level Houston Center
09:56PM 30.9292 -93.6775 219° Southwest 399 459 22,000  Level Houston Center
09:57PM 30.8419 -93.7589 219° Southwest 399 459 22,000  Level Houston Center
09:58PM 30.7572 -93.8392 219° Southwest 393 452 22,000  Level Houston Center
09:59PM 30.6717 -93.9197 219° Southwest 394 453 22,000 -840 Level Houston Center
10:00PM 30.5867 -94.0003 219° Southwest 394 453 20,300 -1,860 Descending Houston Center
10:01PM 30.5006 -94.0800 219° Southwest 394 453 18,300 -2,220 Descending Houston Center
10:02PM 30.3981 -94.1750 219° Southwest 390 449 15,800 -2,340 Descending Houston Center
10:03PM 30.3675 -94.2064 222° Southwest 384 442 15,000 -1,980 Descending Houston Center
10:03PM 30.3181 -94.2503 217° Southwest 373 429 13,800 -1,980 Descending Houston Center
10:04PM 30.2867 -94.2803 220° Southwest 363 418 13,000 -1,680 Descending Houston Center
10:04PM 30.2403 -94.3222 218° Southwest 359 413 12,100 -1,140 Descending Houston Center
10:04PM 30.2156 -94.3478 222° Southwest 348 400 12,000 -300 Descending Houston Center
10:05PM 30.1900 -94.4067 243° Southwest 323 372 11,800 -480 Descending Houston Center
10:06PM 30.1819 -94.4536 259° West 326 375 11,500 -720 Descending Houston Center
10:06PM 30.1742 -94.5006 259° West 325 374 11,100 -840 Descending Houston Center
10:07PM 30.1644 -94.5550 258° West 323 372 10,700 -840 Descending Houston Center
10:07PM 30.1567 -94.6014 259° West 324 373 10,300 -900 Descending Houston Center
10:08PM 30.1483 -94.6492 259° West 282 325 9,800 -900 Descending Houston Center
10:08PM 30.1419 -94.6908 260° West 296 341 9,400 -840 Descending Houston Center
10:09PM 30.1339 -94.7381 259° West 266 306 9,000 -720 Descending Houston Center
10:09PM 30.1278 -94.7731 259° West 267 307 8,700 -780 Descending Houston Center
10:10PM 30.1200 -94.8122 257° West 269 310 8,300 -960 Descending Houston Center
10:10PM 30.1067 -94.8936 259° West 279 321 7,600 -840 Descending Houston Center
10:11PM 30.1056 -94.9669 269° West 281 323 6,900 -840 Descending Houston Center
10:12PM 30.1058 -94.9953 271° West 286 329 6,700 -840 Descending Houston Center
10:12PM 30.1064 -95.0578 271° West 284 327 6,100 -720 Descending Houston Center
10:13PM 30.1058 -95.0847 269° West 279 321 6,000 -120 Descending Houston Center
10:13PM 30.1072 -95.1444 272° West 274 315 6,000  Level Houston Center
10:14PM 30.1061 -95.1789 268° West 264 304 6,000  Level Houston Center
10:14PM 30.1064 -95.2286 270° West 267 307 6,000  Level Houston Center
10:15PM 30.1061 -95.2681 270° West 265 305 6,000  Level Houston Center
10:15PM 30.1072 -95.3097 272° West 258 297 6,000 -120 Level Houston Center
10:16PM 30.1025 -95.3433 261° West 229 264 5,900 -720 Descending Houston Center
10:16PM 30.0986 -95.3817 263° West 232 267 5,300 -1,380 Descending Houston Center
10:17PM 30.0931 -95.4242 261° West 225 259 4,400 -1,380 Descending Houston Center
10:17PM 30.0914 -95.4533 266° West 226 260 3,900 -1,320 Descending Houston Center
10:18PM 30.0869 -95.4975 263° West 226 260 3,100 -900 Descending Houston Center
10:18PM 30.0858 -95.5253 267° West 226 260 3,000 -120 Descending Houston Center
10:19PM 30.0736 -95.5594 248° West 224 258 3,000  Level Houston Center
10:19PM 30.0508 -95.5728 207° Southwest 220 253 3,000  Level Houston Center
10:20PM 30.0206 -95.5753 184° South 199 229 3,000  Level Houston Center
10:20PM 29.9958 -95.5478 136° Southeast 213 245 3,000 -120 Level Houston Center
10:21PM 29.9914 -95.5306 107° East 217 250 2,900 -900 Descending Houston Center
10:21PM 29.9942 -95.4797 86° East 214 246 2,100 -900 Descending Houston Center
10:22PM 29.9933 -95.4331 91° East 176 203 1,400 -720 Descending Houston Center
10:23PM 29.9933 -95.4144 90° East 121 139 1,100 -600 Descending Houston Center
10:24PM 29.9936 -95.3947 89° East 139 160 800 -660 Descending Houston Center
10:24PM 29.9936 -95.3711 90° East 129 148 400 -420 Descending Houston Center
10:25PM 29.9942 -95.3592 87° East 131 151 400  Level Houston Center